Time;durP1;ratioP1;P1;durP2;ratioP2;P2;SDS_P1;SDS_P2;PMS_P1;PMS_P2;Temp;Humidity;BMP_temperature;BMP_pressure;BME280_temperature;BME280_humidity;BME280_pressure;Samples;Min_cycle;Max_cycle;Signal;HPM_P1;HPM_P2
2023/06/07 00:01:33;;;;;;;7.10;6.40;;;22.00;52.70;;;;;;5054207;28;20453;-56
2023/06/07 00:04:01;;;;;;;6.07;5.57;;;21.90;53.00;;;;;;5054165;28;20457;-56
2023/06/07 00:06:32;;;;;;;10.03;6.00;;;21.90;53.40;;;;;;5054085;28;20473;-56
2023/06/07 00:08:59;;;;;;;7.53;6.50;;;21.80;53.60;;;;;;5054027;28;20477;-56
2023/06/07 00:11:26;;;;;;;8.40;6.23;;;21.80;53.70;;;;;;5053480;28;21021;-56
2023/06/07 00:13:53;;;;;;;10.93;6.00;;;21.70;54.10;;;;;;5054806;28;20452;-56
2023/06/07 00:16:19;;;;;;;8.80;7.00;;;21.70;54.40;;;;;;5053488;28;20987;-56
2023/06/07 00:18:48;;;;;;;11.70;6.63;;;21.70;54.90;;;;;;5053829;28;20519;-56
2023/06/07 00:21:14;;;;;;;11.13;7.60;;;21.60;54.90;;;;;;5053722;28;20452;-56
2023/06/07 00:23:41;;;;;;;10.73;6.40;;;21.60;55.40;;;;;;5053381;28;20952;-56
2023/06/07 00:26:08;;;;;;;9.73;6.80;;;21.60;55.60;;;;;;5053365;28;20983;-56
2023/06/07 00:28:34;;;;;;;8.77;6.80;;;21.60;55.80;;;;;;5053081;28;20943;-56
2023/06/07 00:31:01;;;;;;;8.50;7.60;;;21.60;56.00;;;;;;5053592;28;20442;-56
2023/06/07 00:33:28;;;;;;;7.53;6.80;;;21.50;56.20;;;;;;5053551;28;20450;-56
2023/06/07 00:35:56;;;;;;;12.10;7.30;;;21.50;56.60;;;;;;5053473;28;20874;-56
2023/06/07 00:38:23;;;;;;;10.73;6.87;;;21.50;56.60;;;;;;5053520;28;20446;-56
2023/06/07 00:40:50;;;;;;;7.43;6.43;;;21.50;56.80;;;;;;5053173;28;20831;-56
2023/06/07 00:43:17;;;;;;;9.33;7.07;;;21.50;57.10;;;;;;5053406;28;20453;-56
2023/06/07 00:45:44;;;;;;;8.40;5.93;;;21.50;57.30;;;;;;5053331;28;20887;-56
2023/06/07 00:48:12;;;;;;;7.77;7.07;;;21.50;57.50;;;;;;5053196;28;20481;-56
2023/06/07 00:50:39;;;;;;;10.30;6.40;;;21.50;57.70;;;;;;5053244;28;20449;-56
2023/06/07 00:53:08;;;;;;;7.30;6.60;;;21.50;57.50;;;;;;5053187;28;20456;-56
2023/06/07 00:55:35;;;;;;;9.93;6.70;;;21.50;57.60;;;;;;5053146;28;20449;-56
2023/06/07 00:58:02;;;;;;;8.43;7.30;;;21.50;57.90;;;;;;5053233;28;20452;-56
2023/06/07 01:00:30;;;;;;;7.97;6.57;;;21.40;58.10;;;;;;5053203;28;20504;-56
2023/06/07 01:02:57;;;;;;;7.40;5.70;;;21.40;58.10;;;;;;5053229;28;20466;-56
2023/06/07 01:05:24;;;;;;;8.90;6.73;;;21.40;58.30;;;;;;5053235;28;20449;-56
2023/06/07 01:07:54;;;;;;;10.60;6.30;;;21.40;58.40;;;;;;5055316;28;20453;-56
2023/06/07 01:10:22;;;;;;;7.57;6.80;;;21.30;58.40;;;;;;5057823;28;20441;-56
2023/06/07 01:12:54;;;;;;;7.73;6.77;;;21.30;58.40;;;;;;5057125;28;20959;-56
2023/06/07 01:15:21;;;;;;;10.10;6.83;;;21.30;58.70;;;;;;5057246;28;20852;-56
2023/06/07 01:17:49;;;;;;;12.30;7.67;;;21.30;59.00;;;;;;5057139;28;20449;-56
2023/06/07 01:20:20;;;;;;;8.63;7.50;;;21.20;58.70;;;;;;5056918;28;20457;-56
2023/06/07 01:22:48;;;;;;;7.40;6.63;;;21.20;58.70;;;;;;5057179;28;20437;-56
2023/06/07 01:25:16;;;;;;;9.20;7.10;;;21.20;58.90;;;;;;5056907;28;20962;-56
2023/06/07 01:27:46;;;;;;;7.50;6.77;;;21.20;59.00;;;;;;5056940;28;20471;-56
2023/06/07 01:30:13;;;;;;;7.07;6.23;;;21.10;59.10;;;;;;5056937;28;20542;-56
2023/06/07 01:32:42;;;;;;;8.80;6.30;;;21.10;59.30;;;;;;5057214;28;20532;-56
2023/06/07 01:35:10;;;;;;;9.37;7.10;;;21.10;59.50;;;;;;5056889;28;20495;-56
2023/06/07 01:37:37;;;;;;;8.53;6.90;;;21.00;59.50;;;;;;5056468;28;20480;-56
2023/06/07 01:40:06;;;;;;;9.60;6.80;;;21.00;59.60;;;;;;5056770;28;20440;-56
2023/06/07 01:42:35;;;;;;;10.73;7.47;;;21.00;59.80;;;;;;5056758;28;20453;-56
2023/06/07 01:45:03;;;;;;;7.93;6.73;;;20.90;59.90;;;;;;5056675;28;20450;-56
2023/06/07 01:47:30;;;;;;;9.47;6.97;;;20.90;60.10;;;;;;5056463;28;20466;-56
2023/06/07 01:49:58;;;;;;;9.33;6.63;;;20.80;60.40;;;;;;5056543;28;20481;-56
2023/06/07 01:52:24;;;;;;;8.17;6.87;;;20.70;60.80;;;;;;5056641;28;20537;-56
2023/06/07 01:54:51;;;;;;;8.43;6.97;;;20.70;60.80;;;;;;5056218;28;20944;-56
2023/06/07 01:57:27;;;;;;;7.67;6.70;;;20.60;61.00;;;;;;5056411;28;20473;-56
2023/06/07 02:00:06;;;;;;;8.90;6.53;;;20.50;61.30;;;;;;5056136;28;20429;-56
2023/06/07 02:02:38;;;;;;;8.90;6.67;;;20.50;61.50;;;;;;5056656;28;20433;-56
2023/06/07 02:05:10;;;;;;;12.40;7.20;;;20.50;61.80;;;;;;5056081;28;20939;-56
2023/06/07 02:07:43;;;;;;;8.97;7.40;;;20.40;61.90;;;;;;5056224;28;20469;-56
2023/06/07 02:10:10;;;;;;;10.60;7.47;;;20.40;62.00;;;;;;5056207;28;20512;-56
2023/06/07 02:12:38;;;;;;;8.07;7.20;;;20.30;62.20;;;;;;5055891;28;20530;-56
2023/06/07 02:15:07;;;;;;;7.83;6.90;;;20.30;62.60;;;;;;5056084;28;20855;-56
2023/06/07 02:17:34;;;;;;;13.97;8.00;;;20.20;62.80;;;;;;5055581;28;20469;-56
2023/06/07 02:20:02;;;;;;;9.27;7.13;;;20.20;62.90;;;;;;5055694;28;20993;-56
2023/06/07 02:22:29;;;;;;;8.30;7.50;;;20.10;63.20;;;;;;5056041;28;20817;-56
2023/06/07 02:24:56;;;;;;;9.03;8.13;;;20.10;63.50;;;;;;5056020;28;20454;-56
2023/06/07 02:27:23;;;;;;;10.03;8.50;;;20.10;64.20;;;;;;5056210;28;20554;-57
2023/06/07 02:29:50;;;;;;;9.93;8.10;;;20.00;64.60;;;;;;5056896;28;20489;-56
2023/06/07 02:32:18;;;;;;;9.43;8.37;;;20.00;65.00;;;;;;5056569;28;20450;-57
2023/06/07 02:34:44;;;;;;;9.50;8.70;;;20.00;65.30;;;;;;5056376;28;20468;-56
2023/06/07 02:37:11;;;;;;;9.47;8.37;;;20.00;65.70;;;;;;5056035;28;20465;-56
2023/06/07 02:39:38;;;;;;;10.70;8.70;;;20.00;66.10;;;;;;5055901;28;20441;-56
2023/06/07 02:42:06;;;;;;;10.70;8.80;;;20.00;66.50;;;;;;5055887;28;20441;-57
2023/06/07 02:44:32;;;;;;;12.30;9.57;;;20.00;66.70;;;;;;5055701;28;20454;-57
2023/06/07 02:46:59;;;;;;;15.43;8.20;;;20.00;67.20;;;;;;5055843;28;20469;-56
2023/06/07 02:49:27;;;;;;;10.73;8.87;;;19.90;66.80;;;;;;5055744;28;20493;-57
2023/06/07 02:51:54;;;;;;;10.63;9.50;;;19.90;67.00;;;;;;5055883;28;20441;-57
2023/06/07 02:54:20;;;;;;;14.13;8.83;;;19.90;67.60;;;;;;5055693;28;20452;-57
2023/06/07 02:56:47;;;;;;;11.43;8.10;;;19.90;67.40;;;;;;5055347;28;20999;-57
2023/06/07 02:59:14;;;;;;;9.67;7.20;;;19.90;67.60;;;;;;5055555;28;20840;-57
2023/06/07 03:01:40;;;;;;;10.00;7.40;;;19.80;67.30;;;;;;5055423;28;20454;-56
2023/06/07 03:04:07;;;;;;;9.40;7.33;;;19.70;66.90;;;;;;5055303;28;20500;-56
2023/06/07 03:06:35;;;;;;;12.50;9.00;;;19.70;66.90;;;;;;5055239;28;20477;-57
2023/06/07 03:09:02;;;;;;;8.70;7.80;;;19.70;66.90;;;;;;5055139;28;20484;-57
2023/06/07 03:11:28;;;;;;;10.40;8.67;;;19.70;66.90;;;;;;5055079;28;20461;-57
2023/06/07 03:13:55;;;;;;;9.30;8.10;;;19.60;67.20;;;;;;5055104;28;20449;-57
2023/06/07 03:16:22;;;;;;;12.30;8.93;;;19.60;67.50;;;;;;5055002;28;20462;-56
2023/06/07 03:18:49;;;;;;;10.63;8.20;;;19.60;67.60;;;;;;5055308;28;20484;-56
2023/06/07 03:21:15;;;;;;;9.57;8.60;;;19.60;68.20;;;;;;5055085;28;20446;-56
2023/06/07 03:23:43;;;;;;;10.30;7.80;;;19.60;68.50;;;;;;5054986;28;20441;-56
2023/06/07 03:26:10;;;;;;;12.00;9.03;;;19.60;68.10;;;;;;5055038;28;20512;-57
2023/06/07 03:28:37;;;;;;;13.57;8.50;;;19.60;68.30;;;;;;5055011;28;20485;-57
2023/06/07 03:31:04;;;;;;;9.87;8.30;;;19.60;68.80;;;;;;5053989;28;20525;-56
2023/06/07 03:33:31;;;;;;;10.70;7.57;;;19.50;69.30;;;;;;5054524;28;20839;-56
2023/06/07 03:35:57;;;;;;;9.20;8.07;;;19.60;69.60;;;;;;5054619;28;20878;-56
2023/06/07 03:38:24;;;;;;;12.17;9.10;;;19.60;69.70;;;;;;5054646;28;20870;-56
2023/06/07 03:40:52;;;;;;;14.00;8.03;;;19.50;69.90;;;;;;5054642;28;20446;-57
2023/06/07 03:43:19;;;;;;;9.50;7.07;;;19.50;70.10;;;;;;5054653;28;20449;-56
2023/06/07 03:45:45;;;;;;;9.60;8.40;;;19.50;70.60;;;;;;5054762;28;20465;-57
2023/06/07 03:48:12;;;;;;;16.07;9.07;;;19.60;71.10;;;;;;5055090;28;20828;-57
2023/06/07 03:50:38;;;;;;;13.30;7.97;;;19.60;71.10;;;;;;5055907;28;20508;-57
2023/06/07 03:53:05;;;;;;;10.47;8.33;;;19.60;71.00;;;;;;5054249;28;20453;-56
2023/06/07 03:55:33;;;;;;;10.70;8.57;;;19.60;70.90;;;;;;5054239;28;20449;-57
2023/06/07 03:58:01;;;;;;;11.27;8.50;;;19.70;71.20;;;;;;5054199;28;20477;-57
2023/06/07 04:00:27;;;;;;;10.93;8.10;;;19.70;71.30;;;;;;5054154;28;20445;-57
2023/06/07 04:02:55;;;;;;;12.10;8.50;;;19.60;71.60;;;;;;5054136;28;20461;-57
2023/06/07 04:05:24;;;;;;;8.07;7.27;;;19.70;71.60;;;;;;5054008;28;20457;-57
2023/06/07 04:07:51;;;;;;;10.33;7.00;;;19.70;71.60;;;;;;5053970;28;20450;-57
2023/06/07 04:10:17;;;;;;;10.57;8.40;;;19.70;72.10;;;;;;5053595;28;20991;-57
2023/06/07 04:12:45;;;;;;;11.37;8.07;;;19.70;72.40;;;;;;5053522;28;20480;-57
2023/06/07 04:15:13;;;;;;;11.00;8.37;;;19.70;72.50;;;;;;5053826;28;20476;-57
2023/06/07 04:17:39;;;;;;;10.57;8.17;;;19.70;72.00;;;;;;5053506;28;20468;-57
2023/06/07 04:20:09;;;;;;;9.60;8.10;;;19.70;72.10;;;;;;5053493;28;20815;-57
2023/06/07 04:22:36;;;;;;;13.77;8.20;;;19.70;72.60;;;;;;5053354;28;20457;-57
2023/06/07 04:25:03;;;;;;;9.83;8.13;;;19.70;72.40;;;;;;5053420;28;20473;-56
2023/06/07 04:27:30;;;;;;;10.63;8.40;;;19.70;72.40;;;;;;5053252;28;21006;-57
2023/06/07 04:30:02;;;;;;;12.30;8.57;;;19.80;72.10;;;;;;5053714;28;20564;-57
2023/06/07 04:32:30;;;;;;;9.13;7.70;;;19.80;72.40;;;;;;5053321;28;20978;-57
2023/06/07 04:34:57;;;;;;;12.67;8.33;;;19.80;72.70;;;;;;5054102;28;20449;-57
2023/06/07 04:37:24;;;;;;;11.60;8.50;;;19.80;72.50;;;;;;5053563;28;20476;-57
2023/06/07 04:39:51;;;;;;;11.37;8.20;;;19.80;72.00;;;;;;5053141;28;21042;-57
2023/06/07 04:42:18;;;;;;;14.33;8.60;;;19.80;72.30;;;;;;5053407;28;20457;-57
2023/06/07 04:44:45;;;;;;;14.77;8.70;;;19.80;71.90;;;;;;5053422;28;20450;-57
2023/06/07 04:47:13;;;;;;;12.57;8.73;;;19.80;73.00;;;;;;5053069;28;20995;-57
2023/06/07 04:49:41;;;;;;;12.10;8.80;;;19.80;72.00;;;;;;5053128;28;20509;-57
2023/06/07 04:52:08;;;;;;;14.63;9.30;;;19.90;71.70;;;;;;5053361;28;20481;-57
2023/06/07 04:54:36;;;;;;;11.13;9.60;;;19.90;72.00;;;;;;5052401;28;20443;-57
2023/06/07 04:57:03;;;;;;;10.17;8.23;;;20.00;72.70;;;;;;5053200;28;20226;-57
2023/06/07 04:59:34;;;;;;;9.23;8.23;;;20.00;72.30;;;;;;5053243;28;20590;-57
2023/06/07 05:02:01;;;;;;;10.80;9.23;;;20.00;72.20;;;;;;5052055;28;20467;-57
2023/06/07 05:04:28;;;;;;;11.33;10.07;;;20.00;72.80;;;;;;5053208;28;20877;-57
2023/06/07 05:06:58;;;;;;;14.30;9.03;;;20.10;72.50;;;;;;5053113;28;20470;-57
2023/06/07 05:09:25;;;;;;;10.17;7.87;;;20.10;71.40;;;;;;5052745;28;20481;-57
2023/06/07 05:11:51;;;;;;;12.60;7.87;;;20.00;71.60;;;;;;5052864;28;20493;-57
2023/06/07 05:14:18;;;;;;;14.60;8.30;;;20.10;71.90;;;;;;5053125;28;20449;-57
2023/06/07 05:16:45;;;;;;;10.70;8.37;;;20.10;72.10;;;;;;5053033;28;20477;-57
2023/06/07 05:19:12;;;;;;;10.90;8.70;;;20.10;72.10;;;;;;5052936;28;20557;-57
2023/06/07 05:21:39;;;;;;;10.07;7.77;;;20.10;72.30;;;;;;5053006;28;20464;-57
2023/06/07 05:24:07;;;;;;;21.30;10.20;;;20.10;72.10;;;;;;5053096;28;20454;-57
2023/06/07 05:26:34;;;;;;;9.50;8.47;;;20.20;72.20;;;;;;5052572;28;20532;-57
2023/06/07 05:29:00;;;;;;;10.87;8.00;;;20.20;72.30;;;;;;5053365;28;20518;-57
2023/06/07 05:31:29;;;;;;;13.90;8.93;;;20.20;72.00;;;;;;5052891;28;20481;-57
2023/06/07 05:33:55;;;;;;;11.00;8.53;;;20.30;72.00;;;;;;5052945;28;20449;-57
2023/06/07 05:36:22;;;;;;;13.17;8.33;;;20.30;72.10;;;;;;5052936;28;20469;-57
2023/06/07 05:38:49;;;;;;;12.20;8.47;;;20.40;72.00;;;;;;5053036;28;20449;-57
2023/06/07 05:41:18;;;;;;;12.27;10.00;;;20.40;71.80;;;;;;5052660;28;20954;-57
2023/06/07 05:43:44;;;;;;;10.73;7.70;;;20.50;71.40;;;;;;5052934;28;20471;-57
2023/06/07 05:46:11;;;;;;;10.13;8.10;;;20.50;71.30;;;;;;5052819;28;20466;-57
2023/06/07 05:48:38;;;;;;;11.73;8.60;;;20.50;71.40;;;;;;5053415;28;20927;-57
2023/06/07 05:51:06;;;;;;;11.87;9.20;;;20.60;71.50;;;;;;5052418;28;21024;-57
2023/06/07 05:53:32;;;;;;;18.30;8.93;;;20.60;71.60;;;;;;5054381;28;20449;-57
2023/06/07 05:55:59;;;;;;;9.00;7.90;;;20.70;71.30;;;;;;5056743;28;20465;-57
2023/06/07 05:58:27;;;;;;;9.87;8.60;;;20.70;71.20;;;;;;5056426;28;20536;-57
2023/06/07 06:00:54;;;;;;;19.40;9.10;;;20.80;71.10;;;;;;5056545;28;20844;-57
2023/06/07 06:03:21;;;;;;;12.97;9.57;;;21.00;71.20;;;;;;5056556;28;20449;-57
2023/06/07 06:05:47;;;;;;;11.33;9.13;;;21.10;70.50;;;;;;5056423;28;20478;-57
2023/06/07 06:08:15;;;;;;;13.23;8.17;;;21.10;70.10;;;;;;5056568;28;20441;-57
2023/06/07 06:10:44;;;;;;;8.90;7.57;;;21.20;69.70;;;;;;5056185;28;20477;-57
2023/06/07 06:13:11;;;;;;;12.77;9.07;;;21.30;69.20;;;;;;5056272;28;20469;-57
2023/06/07 06:15:39;;;;;;;12.57;8.63;;;21.40;69.00;;;;;;5056882;28;20460;-57
2023/06/07 06:18:06;;;;;;;10.90;8.30;;;21.40;68.70;;;;;;5056258;28;20452;-57
2023/06/07 06:20:34;;;;;;;9.83;8.83;;;21.50;68.70;;;;;;5055760;28;20846;-57
2023/06/07 06:23:03;;;;;;;13.60;9.03;;;21.50;68.60;;;;;;5055804;28;20827;-57
2023/06/07 06:25:31;;;;;;;8.63;7.70;;;21.60;68.60;;;;;;5055745;28;20932;-57
2023/06/07 06:27:57;;;;;;;11.10;8.40;;;21.60;68.40;;;;;;5056010;28;20568;-57
2023/06/07 06:30:26;;;;;;;13.20;8.97;;;21.70;68.30;;;;;;5056047;28;20485;-57
2023/06/07 06:32:54;;;;;;;14.90;9.60;;;21.70;68.60;;;;;;5055898;28;20454;-57
2023/06/07 06:35:21;;;;;;;15.23;8.93;;;21.70;68.90;;;;;;5056138;28;20476;-57
2023/06/07 06:37:48;;;;;;;9.40;8.40;;;21.70;69.10;;;;;;5055690;28;20451;-57
2023/06/07 06:40:16;;;;;;;13.50;9.70;;;21.60;68.90;;;;;;5055486;28;20944;-57
2023/06/07 06:42:43;;;;;;;11.20;8.30;;;21.60;68.60;;;;;;5055891;28;20861;-57
2023/06/07 06:45:10;;;;;;;11.80;8.77;;;21.60;68.90;;;;;;5055385;28;20869;-57
2023/06/07 06:47:41;;;;;;;11.47;10.27;;;21.60;69.00;;;;;;5055563;28;20473;-57
2023/06/07 06:50:10;;;;;;;10.80;9.07;;;21.60;68.50;;;;;;5055402;28;20469;-57
2023/06/07 06:52:36;;;;;;;11.20;9.53;;;21.60;68.70;;;;;;5055420;28;20503;-57
2023/06/07 06:55:04;;;;;;;15.03;10.50;;;21.60;68.90;;;;;;5056228;28;20441;-57
2023/06/07 06:57:31;;;;;;;15.00;10.27;;;21.60;68.60;;;;;;5055299;28;20552;-57
2023/06/07 06:59:58;;;;;;;13.60;9.60;;;21.60;68.00;;;;;;5055421;28;20448;-57
2023/06/07 07:02:25;;;;;;;11.63;8.20;;;21.60;67.90;;;;;;5055525;28;20442;-57
2023/06/07 07:04:52;;;;;;;12.07;9.30;;;21.60;68.00;;;;;;5053956;28;20456;-57
2023/06/07 07:07:20;;;;;;;13.37;10.63;;;21.70;68.30;;;;;;5055194;28;20576;-57
2023/06/07 07:09:47;;;;;;;13.60;9.13;;;21.70;68.00;;;;;;5055109;28;20525;-57
2023/06/07 07:12:14;;;;;;;14.97;10.50;;;21.80;68.10;;;;;;5054778;28;20473;-57
2023/06/07 07:14:40;;;;;;;14.53;10.13;;;21.90;67.00;;;;;;5055279;28;20456;-57
2023/06/07 07:17:07;;;;;;;11.93;8.63;;;21.90;66.50;;;;;;5054932;28;20469;-57
2023/06/07 07:19:34;;;;;;;13.60;10.03;;;21.90;66.80;;;;;;5054928;28;20492;-57
2023/06/07 07:22:01;;;;;;;12.90;10.70;;;22.00;66.50;;;;;;5054856;28;20450;-57
2023/06/07 07:24:29;;;;;;;11.60;9.80;;;22.10;66.90;;;;;;5054962;28;20449;-57
2023/06/07 07:26:55;;;;;;;16.13;10.63;;;22.20;67.10;;;;;;5055732;28;20477;-57
2023/06/07 07:29:22;;;;;;;16.73;10.43;;;22.20;66.80;;;;;;5054766;28;20461;-57
2023/06/07 07:31:49;;;;;;;13.60;9.80;;;22.30;65.90;;;;;;5054640;28;20488;-57
2023/06/07 07:34:15;;;;;;;13.17;8.63;;;22.30;65.40;;;;;;5054358;28;20962;-57
2023/06/07 07:36:44;;;;;;;12.63;8.60;;;22.40;64.70;;;;;;5054537;28;20476;-57
2023/06/07 07:39:11;;;;;;;12.67;9.10;;;22.40;64.40;;;;;;5054535;28;20527;-57
2023/06/07 07:41:40;;;;;;;12.77;8.70;;;22.50;64.00;;;;;;5054282;28;20445;-57
2023/06/07 07:44:06;;;;;;;13.30;9.27;;;22.70;63.90;;;;;;5054454;28;20464;-57
2023/06/07 07:46:33;;;;;;;10.13;9.07;;;22.80;63.10;;;;;;5054378;28;20540;-57
2023/06/07 07:49:00;;;;;;;14.30;9.67;;;22.90;63.10;;;;;;5054443;28;20449;-57
2023/06/07 07:51:27;;;;;;;10.70;8.47;;;23.10;63.10;;;;;;5054247;28;20477;-56
2023/06/07 07:53:53;;;;;;;12.70;9.20;;;23.20;62.50;;;;;;5054131;28;20799;-56
2023/06/07 07:56:21;;;;;;;15.50;9.00;;;23.30;63.20;;;;;;5054244;28;20873;-56
2023/06/07 07:58:49;;;;;;;15.07;10.03;;;23.40;63.70;;;;;;5054186;28;20541;-56
2023/06/07 08:01:16;;;;;;;14.70;8.93;;;23.40;64.60;;;;;;5054259;28;20445;-56
2023/06/07 08:03:43;;;;;;;13.60;8.83;;;23.50;65.20;;;;;;5053870;28;20841;-56
2023/06/07 08:06:09;;;;;;;7.90;7.10;;;23.50;65.10;;;;;;5053741;28;20995;-56
2023/06/07 08:08:36;;;;;;;8.93;7.90;;;23.50;64.90;;;;;;5053686;28;20878;-56
2023/06/07 08:11:03;;;;;;;10.77;8.60;;;23.50;65.10;;;;;;5053432;28;21056;-57
2023/06/07 08:13:30;;;;;;;17.10;9.77;;;23.40;65.00;;;;;;5053975;28;20442;-56
2023/06/07 08:15:58;;;;;;;15.67;10.90;;;23.40;64.40;;;;;;5053433;28;20816;-57
2023/06/07 08:18:25;;;;;;;16.70;10.50;;;23.30;64.30;;;;;;5053504;28;20986;-57
2023/06/07 08:20:51;;;;;;;15.10;11.17;;;23.30;65.00;;;;;;5053775;28;20445;-56
2023/06/07 08:23:18;;;;;;;16.67;10.97;;;23.20;64.80;;;;;;5054307;28;20480;-57
2023/06/07 08:25:45;;;;;;;12.67;9.83;;;23.20;65.30;;;;;;5053401;28;20894;-57
2023/06/07 08:28:11;;;;;;;14.07;10.03;;;23.20;65.30;;;;;;5053659;28;20446;-57
2023/06/07 08:30:38;;;;;;;13.73;10.73;;;23.10;64.30;;;;;;5053549;28;20493;-57
2023/06/07 08:33:06;;;;;;;14.23;10.90;;;23.10;64.30;;;;;;5053588;28;20453;-57
2023/06/07 08:35:32;;;;;;;14.40;11.10;;;23.10;64.60;;;;;;5053550;28;20457;-57
2023/06/07 08:38:00;;;;;;;21.37;11.17;;;23.00;64.80;;;;;;5053589;28;20445;-57
2023/06/07 08:40:27;;;;;;;15.80;11.70;;;23.00;64.60;;;;;;5053872;28;20445;-57
2023/06/07 08:42:57;;;;;;;13.07;10.30;;;23.00;64.50;;;;;;5054887;28;20461;-57
2023/06/07 08:45:23;;;;;;;20.23;11.33;;;22.90;64.30;;;;;;5054331;28;20446;-57
2023/06/07 08:47:51;;;;;;;19.07;11.27;;;22.90;64.40;;;;;;5053976;28;20529;-57
2023/06/07 08:50:22;;;;;;;18.30;9.30;;;22.90;64.60;;;;;;5053540;28;20454;-57
2023/06/07 08:52:54;;;;;;;17.87;10.43;;;22.90;64.90;;;;;;5053558;28;20519;-57
2023/06/07 08:55:22;;;;;;;12.40;9.80;;;22.90;64.70;;;;;;5053771;28;20436;-57
2023/06/07 08:57:51;;;;;;;15.50;10.20;;;22.90;63.70;;;;;;5053374;28;20453;-57
2023/06/07 09:00:22;;;;;;;17.90;10.97;;;22.90;63.40;;;;;;5053912;28;20460;-57
2023/06/07 09:02:51;;;;;;;15.63;11.10;;;22.90;63.60;;;;;;5053284;28;20438;-57
2023/06/07 09:05:19;;;;;;;14.30;10.20;;;22.80;63.40;;;;;;5053283;28;20449;-57
2023/06/07 09:07:46;;;;;;;22.13;11.20;;;22.80;63.10;;;;;;5053195;28;20470;-57
2023/06/07 09:10:13;;;;;;;15.37;11.10;;;22.80;63.10;;;;;;5053171;28;20458;-57
2023/06/07 09:12:40;;;;;;;15.40;11.10;;;22.70;63.00;;;;;;5052747;28;20570;-57
2023/06/07 09:15:08;;;;;;;14.10;10.33;;;22.80;63.00;;;;;;5053196;28;20452;-57
2023/06/07 09:17:52;;;;;;;14.03;11.57;;;22.80;62.70;;;;;;5052955;28;20465;-57
2023/06/07 09:20:25;;;;;;;19.63;11.70;;;22.90;63.00;;;;;;5053127;28;20449;-57
2023/06/07 09:23:04;;;;;;;11.93;10.63;;;22.90;62.30;;;;;;5054146;28;20495;-57
2023/06/07 09:25:31;;;;;;;13.30;11.20;;;22.90;62.30;;;;;;5053025;28;20444;-57
2023/06/07 09:27:58;;;;;;;16.57;11.33;;;23.00;62.20;;;;;;5053549;28;20473;-57
2023/06/07 09:30:26;;;;;;;20.37;13.53;;;23.10;62.20;;;;;;5056902;28;20456;-57
2023/06/07 09:32:53;;;;;;;14.77;10.87;;;23.10;63.20;;;;;;5056913;28;20806;-57
2023/06/07 09:35:21;;;;;;;14.53;11.90;;;23.10;62.10;;;;;;5056933;28;20489;-56
2023/06/07 09:37:51;;;;;;;16.60;10.30;;;23.10;63.10;;;;;;5056399;28;20830;-56
2023/06/07 09:40:18;;;;;;;15.17;12.13;;;23.10;62.90;;;;;;5056852;28;20480;-56
2023/06/07 09:42:45;;;;;;;16.23;12.07;;;23.10;63.00;;;;;;5056748;28;20449;-57
2023/06/07 09:45:13;;;;;;;12.03;10.73;;;23.10;63.50;;;;;;5057005;28;20445;-56
2023/06/07 09:47:41;;;;;;;13.50;12.10;;;23.00;63.50;;;;;;5056593;28;20477;-56
2023/06/07 09:50:09;;;;;;;13.77;11.10;;;22.90;63.50;;;;;;5056611;28;20477;-56
2023/06/07 09:52:36;;;;;;;19.10;11.40;;;22.80;63.40;;;;;;5056494;28;20481;-56
2023/06/07 09:55:06;;;;;;;17.77;11.57;;;22.60;62.90;;;;;;5056298;28;20536;-57
2023/06/07 09:57:35;;;;;;;15.60;11.37;;;22.40;63.60;;;;;;5056447;28;20473;-56
2023/06/07 10:00:10;;;;;;;17.10;12.50;;;22.30;64.40;;;;;;5056404;28;20453;-56
2023/06/07 10:02:37;;;;;;;14.97;11.57;;;22.20;65.50;;;;;;5056116;28;20422;-56
2023/06/07 10:05:04;;;;;;;12.70;11.40;;;22.10;65.70;;;;;;5056412;28;20820;-56
2023/06/07 10:07:35;;;;;;;18.77;12.67;;;22.00;66.10;;;;;;5056183;28;20895;-56
2023/06/07 10:10:05;;;;;;;13.70;12.30;;;21.90;66.70;;;;;;5056324;28;20430;-56
2023/06/07 10:12:35;;;;;;;17.23;12.20;;;21.90;67.10;;;;;;5055713;28;20492;-56
2023/06/07 10:15:03;;;;;;;14.20;12.80;;;21.90;67.10;;;;;;5055932;28;20484;-56
2023/06/07 10:17:42;;;;;;;15.10;12.90;;;21.80;67.30;;;;;;5056048;28;20516;-56
2023/06/07 10:20:13;;;;;;;14.23;12.50;;;21.80;67.40;;;;;;5056079;28;20437;-56
2023/06/07 10:22:44;;;;;;;18.83;13.30;;;21.70;67.70;;;;;;5056886;28;20430;-56
2023/06/07 10:25:17;;;;;;;17.40;12.80;;;21.60;68.10;;;;;;5055986;28;20457;-56
2023/06/07 10:27:50;;;;;;;17.13;13.60;;;21.50;68.10;;;;;;5055931;28;20561;-56
2023/06/07 10:30:18;;;;;;;18.83;12.50;;;21.40;68.80;;;;;;5055944;28;20434;-56
2023/06/07 10:32:47;;;;;;;16.57;13.07;;;21.30;69.60;;;;;;5055809;28;20531;-56
2023/06/07 10:35:18;;;;;;;16.13;12.50;;;21.20;70.20;;;;;;5055516;28;20928;-56
2023/06/07 10:37:45;;;;;;;16.90;12.60;;;21.20;70.70;;;;;;5055631;28;20814;-56
2023/06/07 10:40:14;;;;;;;20.10;13.33;;;21.10;70.90;;;;;;5055364;28;20445;-56
2023/06/07 10:42:43;;;;;;;15.97;12.50;;;21.10;71.60;;;;;;5055338;28;20950;-56
2023/06/07 10:45:15;;;;;;;14.63;12.47;;;21.10;71.90;;;;;;5055661;28;20515;-56
2023/06/07 10:47:42;;;;;;;18.20;13.33;;;21.20;72.30;;;;;;5055552;28;20469;-56
2023/06/07 10:50:30;;;;;;;16.93;12.40;;;21.20;72.40;;;;;;5055491;28;20449;-57
2023/06/07 10:52:57;;;;;;;19.83;14.63;;;21.30;72.10;;;;;;5054985;28;20504;-57
2023/06/07 10:55:31;;;;;;;15.60;13.70;;;21.30;72.00;;;;;;5055330;28;20939;-57
2023/06/07 10:57:58;;;;;;;16.90;13.80;;;21.40;72.00;;;;;;5055462;28;20434;-57
2023/06/07 11:00:28;;;;;;;18.97;14.73;;;21.40;71.90;;;;;;5055032;28;20967;-57
2023/06/07 11:03:33;;;;;;;14.53;12.87;;;21.30;71.90;;;;;;5055301;28;20429;-57
2023/06/07 11:06:08;;;;;;;15.37;13.77;;;21.30;72.50;;;;;;5054915;28;20940;-56
2023/06/07 11:08:37;;;;;;;15.70;13.70;;;21.30;72.40;;;;;;5055219;28;20477;-56
2023/06/07 11:11:21;;;;;;;15.57;13.40;;;21.30;72.90;;;;;;5054977;28;20457;-56
2023/06/07 11:14:10;;;;;;;17.20;13.60;;;21.40;73.30;;;;;;5054634;28;20445;-57
2023/06/07 11:16:40;;;;;;;16.37;13.87;;;21.50;73.90;;;;;;5055025;28;20505;-57
2023/06/07 11:19:11;;;;;;;16.77;14.23;;;21.60;73.20;;;;;;5054975;28;20484;-57
2023/06/07 11:22:06;;;;;;;20.20;15.20;;;21.60;72.90;;;;;;5055003;28;20896;-57
2023/06/07 11:24:36;;;;;;;20.50;16.40;;;21.70;72.80;;;;;;5054907;28;20441;-57
2023/06/07 11:27:10;;;;;;;21.10;18.63;;;21.80;71.60;;;;;;5054776;28;20560;-57
2023/06/07 11:29:37;;;;;;;20.03;17.63;;;21.90;71.80;;;;;;5054737;28;20429;-57
2023/06/07 11:32:05;;;;;;;19.93;16.17;;;22.10;71.80;;;;;;5054757;28;20481;-57
2023/06/07 11:34:33;;;;;;;21.13;16.50;;;22.30;70.90;;;;;;5054816;28;20449;-57
2023/06/07 11:37:16;;;;;;;19.33;14.40;;;22.50;70.00;;;;;;5055041;28;20528;-57
2023/06/07 11:39:43;;;;;;;17.90;14.53;;;22.80;68.90;;;;;;5054984;28;20434;-57
2023/06/07 11:42:11;;;;;;;20.50;15.03;;;23.10;67.90;;;;;;5054820;28;20457;-57
2023/06/07 11:44:38;;;;;;;24.10;16.33;;;23.50;66.60;;;;;;5054520;28;20449;-57
2023/06/07 11:47:06;;;;;;;17.27;13.10;;;24.20;65.60;;;;;;5054375;28;20520;-57
2023/06/07 11:49:35;;;;;;;16.00;14.30;;;25.20;61.90;;;;;;5054487;28;20480;-57
2023/06/07 11:52:01;;;;;;;14.90;13.50;;;26.50;58.50;;;;;;5053847;28;20485;-58
2023/06/07 11:54:29;;;;;;;14.27;12.97;;;28.00;55.10;;;;;;5054381;28;20441;-58
2023/06/07 11:56:55;;;;;;;17.60;13.07;;;29.20;50.00;;;;;;5054418;28;20471;-56
2023/06/07 11:59:24;;;;;;;15.07;13.47;;;29.90;46.90;;;;;;5054220;28;20453;-56
2023/06/07 12:01:52;;;;;;;17.13;15.30;;;30.40;45.60;;;;;;5054723;28;20446;-57
2023/06/07 12:04:20;;;;;;;15.53;14.03;;;30.50;44.00;;;;;;5054265;28;20523;-57
2023/06/07 12:06:49;;;;;;;17.97;16.00;;;30.60;43.70;;;;;;5054129;28;20474;-56
2023/06/07 12:09:18;;;;;;;18.07;16.17;;;31.00;42.80;;;;;;5054043;28;20457;-57
2023/06/07 12:11:45;;;;;;;16.50;14.97;;;31.40;42.00;;;;;;5053760;28;20492;-56
2023/06/07 12:14:12;;;;;;;19.27;15.30;;;31.60;41.20;;;;;;5054602;28;20482;-57
2023/06/07 12:16:40;;;;;;;17.80;13.90;;;31.70;40.20;;;;;;5054729;28;20477;-57
2023/06/07 12:19:08;;;;;;;16.03;14.27;;;31.70;40.00;;;;;;5056242;28;20476;-57
2023/06/07 12:21:36;;;;;;;15.73;13.87;;;31.80;40.80;;;;;;5054602;28;20822;-57
2023/06/07 12:24:03;;;;;;;16.60;15.00;;;32.30;40.60;;;;;;5053691;28;20961;-57
2023/06/07 12:26:30;;;;;;;18.87;16.90;;;33.10;39.90;;;;;;5053526;28;20469;-57
2023/06/07 12:29:01;;;;;;;16.27;14.90;;;34.00;37.10;;;;;;5053386;28;20863;-57
2023/06/07 12:31:28;;;;;;;16.77;15.20;;;34.50;35.80;;;;;;5053760;28;20437;-57
2023/06/07 12:33:58;;;;;;;15.63;14.13;;;34.50;34.40;;;;;;5053663;28;20499;-57
2023/06/07 12:36:28;;;;;;;16.90;15.30;;;34.20;35.20;;;;;;5053549;28;20473;-57
2023/06/07 12:38:54;;;;;;;15.77;14.23;;;34.00;35.80;;;;;;5053264;28;20532;-57
2023/06/07 12:41:23;;;;;;;14.63;13.27;;;34.50;36.40;;;;;;5054344;28;20456;-57